sensor_id;sensor_type;location;lat;lon;timestamp;P1;durP1;ratioP1;P2;durP2;ratioP2
53261;SDS011;39658;51.090;-1.786;2022-09-09T00:01:37;1.20;;;0.50;;
53261;SDS011;39658;51.090;-1.786;2022-09-09T00:04:16;0.75;;;0.57;;
53261;SDS011;39658;51.090;-1.786;2022-09-09T00:06:55;0.10;;;0.10;;
53261;SDS011;39658;51.090;-1.786;2022-09-09T00:09:27;0.32;;;0.17;;
53261;SDS011;39658;51.090;-1.786;2022-09-09T00:11:57;0.00;;;0.00;;
53261;SDS011;39658;51.090;-1.786;2022-09-09T00:14:32;0.75;;;0.20;;
53261;SDS011;39658;51.090;-1.786;2022-09-09T00:17:08;1.58;;;0.45;;
53261;SDS011;39658;51.090;-1.786;2022-09-09T00:22:12;1.98;;;0.82;;
53261;SDS011;39658;51.090;-1.786;2022-09-09T00:24:43;1.85;;;0.73;;
53261;SDS011;39658;51.090;-1.786;2022-09-09T00:27:13;1.17;;;0.57;;
53261;SDS011;39658;51.090;-1.786;2022-09-09T00:29:47;0.40;;;0.30;;
53261;SDS011;39658;51.090;-1.786;2022-09-09T00:32:21;5.03;;;0.63;;
53261;SDS011;39658;51.090;-1.786;2022-09-09T00:34:51;0.52;;;0.40;;
53261;SDS011;39658;51.090;-1.786;2022-09-09T00:37:22;1.60;;;0.85;;
53261;SDS011;39658;51.090;-1.786;2022-09-09T00:39:51;0.45;;;0.20;;
53261;SDS011;39658;51.090;-1.786;2022-09-09T00:42:24;0.17;;;0.17;;
53261;SDS011;39658;51.090;-1.786;2022-09-09T00:44:55;0.70;;;0.30;;
53261;SDS011;39658;51.090;-1.786;2022-09-09T00:47:35;0.28;;;0.22;;
53261;SDS011;39658;51.090;-1.786;2022-09-09T00:50:14;0.10;;;0.08;;
53261;SDS011;39658;51.090;-1.786;2022-09-09T00:52:52;0.60;;;0.30;;
53261;SDS011;39658;51.090;-1.786;2022-09-09T00:55:26;2.38;;;0.85;;
53261;SDS011;39658;51.090;-1.786;2022-09-09T00:58:00;0.22;;;0.13;;
53261;SDS011;39658;51.090;-1.786;2022-09-09T01:00:27;0.10;;;0.10;;
53261;SDS011;39658;51.090;-1.786;2022-09-09T01:03:01;1.85;;;0.47;;
53261;SDS011;39658;51.090;-1.786;2022-09-09T01:05:42;1.25;;;1.02;;
53261;SDS011;39658;51.090;-1.786;2022-09-09T01:08:15;2.63;;;0.97;;
53261;SDS011;39658;51.090;-1.786;2022-09-09T01:10:53;1.02;;;0.50;;
53261;SDS011;39658;51.090;-1.786;2022-09-09T01:13:22;0.80;;;0.35;;
53261;SDS011;39658;51.090;-1.786;2022-09-09T01:15:51;1.38;;;0.63;;
53261;SDS011;39658;51.090;-1.786;2022-09-09T01:18:21;1.02;;;0.70;;
53261;SDS011;39658;51.090;-1.786;2022-09-09T01:20:54;0.55;;;0.43;;
53261;SDS011;39658;51.090;-1.786;2022-09-09T01:23:47;3.33;;;1.15;;
53261;SDS011;39658;51.090;-1.786;2022-09-09T01:26:35;3.03;;;0.98;;
53261;SDS011;39658;51.090;-1.786;2022-09-09T01:29:06;0.70;;;0.40;;
53261;SDS011;39658;51.090;-1.786;2022-09-09T01:31:36;0.43;;;0.30;;
53261;SDS011;39658;51.090;-1.786;2022-09-09T01:34:07;4.72;;;0.88;;
53261;SDS011;39658;51.090;-1.786;2022-09-09T01:36:38;1.23;;;0.68;;
53261;SDS011;39658;51.090;-1.786;2022-09-09T01:39:08;0.57;;;0.47;;
53261;SDS011;39658;51.090;-1.786;2022-09-09T01:41:37;0.75;;;0.50;;
53261;SDS011;39658;51.090;-1.786;2022-09-09T01:44:04;1.13;;;0.55;;
53261;SDS011;39658;51.090;-1.786;2022-09-09T01:46:33;2.58;;;0.80;;
53261;SDS011;39658;51.090;-1.786;2022-09-09T01:48:59;2.03;;;1.13;;
53261;SDS011;39658;51.090;-1.786;2022-09-09T01:51:30;1.70;;;0.95;;
53261;SDS011;39658;51.090;-1.786;2022-09-09T01:53:57;1.33;;;0.82;;
53261;SDS011;39658;51.090;-1.786;2022-09-09T01:56:28;1.80;;;0.73;;
53261;SDS011;39658;51.090;-1.786;2022-09-09T01:59:13;2.15;;;1.02;;
53261;SDS011;39658;51.090;-1.786;2022-09-09T02:01:55;5.40;;;1.42;;
53261;SDS011;39658;51.090;-1.786;2022-09-09T02:04:34;0.77;;;0.40;;
53261;SDS011;39658;51.090;-1.786;2022-09-09T02:07:06;1.83;;;0.82;;
53261;SDS011;39658;51.090;-1.786;2022-09-09T02:09:44;1.60;;;0.93;;
53261;SDS011;39658;51.090;-1.786;2022-09-09T02:12:18;3.10;;;1.25;;
53261;SDS011;39658;51.090;-1.786;2022-09-09T02:14:48;2.30;;;0.85;;
53261;SDS011;39658;51.090;-1.786;2022-09-09T02:17:22;1.98;;;1.15;;
53261;SDS011;39658;51.090;-1.786;2022-09-09T02:19:54;0.50;;;0.38;;
53261;SDS011;39658;51.090;-1.786;2022-09-09T02:22:25;2.13;;;1.58;;
53261;SDS011;39658;51.090;-1.786;2022-09-09T02:24:54;1.17;;;0.63;;
53261;SDS011;39658;51.090;-1.786;2022-09-09T02:27:26;2.10;;;1.08;;
53261;SDS011;39658;51.090;-1.786;2022-09-09T02:29:54;2.38;;;0.68;;
53261;SDS011;39658;51.090;-1.786;2022-09-09T02:32:25;2.03;;;0.98;;
53261;SDS011;39658;51.090;-1.786;2022-09-09T02:34:55;3.65;;;1.05;;
53261;SDS011;39658;51.090;-1.786;2022-09-09T02:37:27;1.08;;;0.75;;
53261;SDS011;39658;51.090;-1.786;2022-09-09T02:39:58;1.15;;;0.57;;
53261;SDS011;39658;51.090;-1.786;2022-09-09T02:42:26;0.80;;;0.60;;
53261;SDS011;39658;51.090;-1.786;2022-09-09T02:44:53;2.55;;;0.80;;
53261;SDS011;39658;51.090;-1.786;2022-09-09T02:47:24;1.27;;;0.70;;
53261;SDS011;39658;51.090;-1.786;2022-09-09T02:49:58;0.73;;;0.45;;
53261;SDS011;39658;51.090;-1.786;2022-09-09T02:52:36;14.13;;;1.30;;
53261;SDS011;39658;51.090;-1.786;2022-09-09T02:55:14;0.45;;;0.28;;
53261;SDS011;39658;51.090;-1.786;2022-09-09T02:57:49;1.65;;;0.98;;
53261;SDS011;39658;51.090;-1.786;2022-09-09T03:00:22;1.08;;;0.60;;
53261;SDS011;39658;51.090;-1.786;2022-09-09T03:02:50;1.40;;;0.77;;
53261;SDS011;39658;51.090;-1.786;2022-09-09T03:05:17;0.60;;;0.40;;
53261;SDS011;39658;51.090;-1.786;2022-09-09T03:07:44;0.88;;;0.47;;
53261;SDS011;39658;51.090;-1.786;2022-09-09T03:10:11;1.15;;;0.50;;
53261;SDS011;39658;51.090;-1.786;2022-09-09T03:12:38;0.70;;;0.55;;
53261;SDS011;39658;51.090;-1.786;2022-09-09T03:15:07;1.00;;;0.60;;
53261;SDS011;39658;51.090;-1.786;2022-09-09T03:17:34;0.40;;;0.25;;
53261;SDS011;39658;51.090;-1.786;2022-09-09T03:20:02;0.85;;;0.60;;
53261;SDS011;39658;51.090;-1.786;2022-09-09T03:22:29;1.38;;;0.60;;
53261;SDS011;39658;51.090;-1.786;2022-09-09T03:24:56;2.20;;;0.75;;
53261;SDS011;39658;51.090;-1.786;2022-09-09T03:27:23;1.45;;;0.60;;
53261;SDS011;39658;51.090;-1.786;2022-09-09T03:29:49;1.25;;;0.55;;
53261;SDS011;39658;51.090;-1.786;2022-09-09T03:32:18;1.75;;;1.13;;
53261;SDS011;39658;51.090;-1.786;2022-09-09T03:34:47;0.45;;;0.40;;
53261;SDS011;39658;51.090;-1.786;2022-09-09T03:37:14;2.20;;;0.80;;
53261;SDS011;39658;51.090;-1.786;2022-09-09T03:39:42;1.23;;;1.02;;
53261;SDS011;39658;51.090;-1.786;2022-09-09T03:42:11;3.88;;;0.95;;
53261;SDS011;39658;51.090;-1.786;2022-09-09T03:44:39;1.45;;;0.63;;
53261;SDS011;39658;51.090;-1.786;2022-09-09T03:47:07;0.70;;;0.40;;
53261;SDS011;39658;51.090;-1.786;2022-09-09T03:49:35;1.83;;;0.88;;
53261;SDS011;39658;51.090;-1.786;2022-09-09T03:52:02;1.05;;;0.50;;
53261;SDS011;39658;51.090;-1.786;2022-09-09T03:54:28;0.77;;;0.40;;
53261;SDS011;39658;51.090;-1.786;2022-09-09T03:56:55;2.17;;;1.08;;
53261;SDS011;39658;51.090;-1.786;2022-09-09T03:59:23;1.08;;;0.52;;
53261;SDS011;39658;51.090;-1.786;2022-09-09T04:01:50;1.75;;;0.75;;
53261;SDS011;39658;51.090;-1.786;2022-09-09T04:04:17;1.55;;;0.63;;
53261;SDS011;39658;51.090;-1.786;2022-09-09T04:06:46;0.70;;;0.40;;
53261;SDS011;39658;51.090;-1.786;2022-09-09T04:09:13;0.30;;;0.30;;
53261;SDS011;39658;51.090;-1.786;2022-09-09T04:11:40;0.17;;;0.17;;
53261;SDS011;39658;51.090;-1.786;2022-09-09T04:14:07;2.50;;;0.52;;
53261;SDS011;39658;51.090;-1.786;2022-09-09T04:16:34;0.60;;;0.32;;
53261;SDS011;39658;51.090;-1.786;2022-09-09T04:19:02;0.57;;;0.28;;
53261;SDS011;39658;51.090;-1.786;2022-09-09T04:21:29;1.10;;;0.60;;
53261;SDS011;39658;51.090;-1.786;2022-09-09T04:23:57;3.50;;;1.63;;
53261;SDS011;39658;51.090;-1.786;2022-09-09T04:26:24;2.42;;;1.83;;
53261;SDS011;39658;51.090;-1.786;2022-09-09T04:28:51;1.38;;;0.80;;
53261;SDS011;39658;51.090;-1.786;2022-09-09T04:31:19;1.85;;;0.60;;
53261;SDS011;39658;51.090;-1.786;2022-09-09T04:33:47;0.30;;;0.20;;
53261;SDS011;39658;51.090;-1.786;2022-09-09T04:36:15;0.90;;;0.47;;
53261;SDS011;39658;51.090;-1.786;2022-09-09T04:38:43;0.38;;;0.38;;
53261;SDS011;39658;51.090;-1.786;2022-09-09T04:41:11;1.10;;;0.63;;
53261;SDS011;39658;51.090;-1.786;2022-09-09T04:43:38;2.27;;;1.10;;
53261;SDS011;39658;51.090;-1.786;2022-09-09T04:46:05;1.23;;;0.50;;
53261;SDS011;39658;51.090;-1.786;2022-09-09T04:48:32;0.95;;;0.40;;
53261;SDS011;39658;51.090;-1.786;2022-09-09T04:51:00;0.30;;;0.28;;
53261;SDS011;39658;51.090;-1.786;2022-09-09T04:53:29;0.93;;;0.82;;
53261;SDS011;39658;51.090;-1.786;2022-09-09T04:56:03;0.75;;;0.50;;
53261;SDS011;39658;51.090;-1.786;2022-09-09T04:58:32;0.90;;;0.60;;
53261;SDS011;39658;51.090;-1.786;2022-09-09T05:01:03;0.68;;;0.47;;
53261;SDS011;39658;51.090;-1.786;2022-09-09T05:03:31;1.42;;;0.70;;
53261;SDS011;39658;51.090;-1.786;2022-09-09T05:06:01;1.20;;;0.82;;
53261;SDS011;39658;51.090;-1.786;2022-09-09T05:08:29;0.82;;;0.50;;
53261;SDS011;39658;51.090;-1.786;2022-09-09T05:10:56;1.05;;;0.57;;
53261;SDS011;39658;51.090;-1.786;2022-09-09T05:13:24;2.15;;;1.00;;
53261;SDS011;39658;51.090;-1.786;2022-09-09T05:15:53;0.30;;;0.20;;
53261;SDS011;39658;51.090;-1.786;2022-09-09T05:18:20;1.63;;;0.65;;
53261;SDS011;39658;51.090;-1.786;2022-09-09T05:20:47;1.33;;;0.68;;
53261;SDS011;39658;51.090;-1.786;2022-09-09T05:23:16;1.40;;;0.65;;
53261;SDS011;39658;51.090;-1.786;2022-09-09T05:25:42;1.33;;;0.55;;
53261;SDS011;39658;51.090;-1.786;2022-09-09T05:28:11;0.95;;;0.60;;
53261;SDS011;39658;51.090;-1.786;2022-09-09T05:30:38;0.77;;;0.50;;
53261;SDS011;39658;51.090;-1.786;2022-09-09T05:33:06;2.35;;;0.85;;
53261;SDS011;39658;51.090;-1.786;2022-09-09T05:35:34;1.02;;;0.47;;
53261;SDS011;39658;51.090;-1.786;2022-09-09T05:38:01;0.40;;;0.28;;
53261;SDS011;39658;51.090;-1.786;2022-09-09T05:40:28;2.05;;;0.77;;
53261;SDS011;39658;51.090;-1.786;2022-09-09T05:42:55;2.55;;;0.98;;
53261;SDS011;39658;51.090;-1.786;2022-09-09T05:45:25;2.47;;;0.85;;
53261;SDS011;39658;51.090;-1.786;2022-09-09T05:47:52;0.80;;;0.35;;
53261;SDS011;39658;51.090;-1.786;2022-09-09T05:50:21;0.10;;;0.10;;
53261;SDS011;39658;51.090;-1.786;2022-09-09T05:52:48;0.90;;;0.65;;
53261;SDS011;39658;51.090;-1.786;2022-09-09T05:55:15;0.23;;;0.20;;
53261;SDS011;39658;51.090;-1.786;2022-09-09T05:57:42;4.18;;;0.63;;
53261;SDS011;39658;51.090;-1.786;2022-09-09T06:00:14;0.45;;;0.32;;
53261;SDS011;39658;51.090;-1.786;2022-09-09T06:02:41;1.03;;;0.63;;
53261;SDS011;39658;51.090;-1.786;2022-09-09T06:05:09;0.82;;;0.46;;
53261;SDS011;39658;51.090;-1.786;2022-09-09T06:07:38;0.63;;;0.40;;
53261;SDS011;39658;51.090;-1.786;2022-09-09T06:10:07;2.05;;;0.40;;
53261;SDS011;39658;51.090;-1.786;2022-09-09T06:12:34;2.17;;;0.75;;
53261;SDS011;39658;51.090;-1.786;2022-09-09T06:15:01;0.25;;;0.25;;
53261;SDS011;39658;51.090;-1.786;2022-09-09T06:17:28;1.13;;;0.52;;
53261;SDS011;39658;51.090;-1.786;2022-09-09T06:19:55;0.08;;;0.08;;
53261;SDS011;39658;51.090;-1.786;2022-09-09T06:22:22;1.30;;;0.80;;
53261;SDS011;39658;51.090;-1.786;2022-09-09T06:24:50;1.40;;;0.45;;
53261;SDS011;39658;51.090;-1.786;2022-09-09T06:27:18;0.30;;;0.17;;
53261;SDS011;39658;51.090;-1.786;2022-09-09T06:29:46;0.17;;;0.17;;
53261;SDS011;39658;51.090;-1.786;2022-09-09T06:32:14;0.30;;;0.15;;
53261;SDS011;39658;51.090;-1.786;2022-09-09T06:34:40;0.85;;;0.57;;
53261;SDS011;39658;51.090;-1.786;2022-09-09T06:37:07;1.38;;;0.52;;
53261;SDS011;39658;51.090;-1.786;2022-09-09T06:39:34;2.30;;;0.32;;
53261;SDS011;39658;51.090;-1.786;2022-09-09T06:42:02;0.20;;;0.20;;
53261;SDS011;39658;51.090;-1.786;2022-09-09T06:44:29;1.45;;;0.50;;
53261;SDS011;39658;51.090;-1.786;2022-09-09T06:46:57;1.08;;;0.45;;
53261;SDS011;39658;51.090;-1.786;2022-09-09T06:49:23;0.00;;;0.00;;
53261;SDS011;39658;51.090;-1.786;2022-09-09T06:51:50;0.93;;;0.30;;
53261;SDS011;39658;51.090;-1.786;2022-09-09T06:54:17;1.67;;;0.70;;
53261;SDS011;39658;51.090;-1.786;2022-09-09T06:56:44;0.68;;;0.65;;
53261;SDS011;39658;51.090;-1.786;2022-09-09T06:59:13;0.52;;;0.32;;
53261;SDS011;39658;51.090;-1.786;2022-09-09T07:01:40;0.63;;;0.32;;
53261;SDS011;39658;51.090;-1.786;2022-09-09T07:04:09;0.10;;;0.10;;
53261;SDS011;39658;51.090;-1.786;2022-09-09T07:06:37;2.13;;;1.45;;
53261;SDS011;39658;51.090;-1.786;2022-09-09T07:09:05;0.17;;;0.17;;
53261;SDS011;39658;51.090;-1.786;2022-09-09T07:11:36;3.10;;;0.63;;
53261;SDS011;39658;51.090;-1.786;2022-09-09T07:14:06;1.45;;;1.15;;
53261;SDS011;39658;51.090;-1.786;2022-09-09T07:16:35;2.05;;;0.80;;
53261;SDS011;39658;51.090;-1.786;2022-09-09T07:19:02;0.43;;;0.30;;
53261;SDS011;39658;51.090;-1.786;2022-09-09T07:21:30;0.40;;;0.20;;
53261;SDS011;39658;51.090;-1.786;2022-09-09T07:23:57;0.00;;;0.00;;
53261;SDS011;39658;51.090;-1.786;2022-09-09T07:26:25;1.38;;;0.55;;
53261;SDS011;39658;51.090;-1.786;2022-09-09T07:28:54;0.85;;;0.30;;
53261;SDS011;39658;51.090;-1.786;2022-09-09T07:31:23;1.38;;;0.80;;
53261;SDS011;39658;51.090;-1.786;2022-09-09T07:33:53;1.45;;;0.32;;
53261;SDS011;39658;51.090;-1.786;2022-09-09T07:36:20;0.08;;;0.08;;
53261;SDS011;39658;51.090;-1.786;2022-09-09T07:38:49;1.65;;;0.98;;
53261;SDS011;39658;51.090;-1.786;2022-09-09T07:41:18;0.25;;;0.17;;
53261;SDS011;39658;51.090;-1.786;2022-09-09T07:43:46;0.90;;;0.65;;
53261;SDS011;39658;51.090;-1.786;2022-09-09T07:46:15;0.82;;;0.20;;
53261;SDS011;39658;51.090;-1.786;2022-09-09T07:48:45;0.10;;;0.10;;
53261;SDS011;39658;51.090;-1.786;2022-09-09T07:51:18;0.40;;;0.40;;
53261;SDS011;39658;51.090;-1.786;2022-09-09T07:53:47;0.30;;;0.30;;
53261;SDS011;39658;51.090;-1.786;2022-09-09T07:56:17;0.20;;;0.20;;
53261;SDS011;39658;51.090;-1.786;2022-09-09T07:58:47;0.28;;;0.28;;
53261;SDS011;39658;51.090;-1.786;2022-09-09T08:01:14;0.40;;;0.40;;
53261;SDS011;39658;51.090;-1.786;2022-09-09T08:03:45;0.20;;;0.20;;
53261;SDS011;39658;51.090;-1.786;2022-09-09T08:06:13;0.55;;;0.40;;
53261;SDS011;39658;51.090;-1.786;2022-09-09T08:08:41;1.08;;;0.20;;
53261;SDS011;39658;51.090;-1.786;2022-09-09T08:11:09;0.70;;;0.50;;
53261;SDS011;39658;51.090;-1.786;2022-09-09T08:13:40;0.52;;;0.45;;
53261;SDS011;39658;51.090;-1.786;2022-09-09T08:16:09;0.47;;;0.35;;
53261;SDS011;39658;51.090;-1.786;2022-09-09T08:18:37;1.65;;;0.68;;
53261;SDS011;39658;51.090;-1.786;2022-09-09T08:21:05;0.30;;;0.30;;
53261;SDS011;39658;51.090;-1.786;2022-09-09T08:23:33;0.22;;;0.22;;
53261;SDS011;39658;51.090;-1.786;2022-09-09T08:26:05;0.30;;;0.30;;
53261;SDS011;39658;51.090;-1.786;2022-09-09T08:28:34;0.75;;;0.45;;
53261;SDS011;39658;51.090;-1.786;2022-09-09T08:31:07;1.57;;;0.90;;
53261;SDS011;39658;51.090;-1.786;2022-09-09T08:33:36;0.57;;;0.52;;
53261;SDS011;39658;51.090;-1.786;2022-09-09T08:36:05;0.43;;;0.40;;
53261;SDS011;39658;51.090;-1.786;2022-09-09T08:38:34;0.30;;;0.30;;
53261;SDS011;39658;51.090;-1.786;2022-09-09T08:41:07;0.30;;;0.30;;
53261;SDS011;39658;51.090;-1.786;2022-09-09T08:43:46;0.83;;;0.53;;
53261;SDS011;39658;51.090;-1.786;2022-09-09T08:46:16;0.30;;;0.30;;
53261;SDS011;39658;51.090;-1.786;2022-09-09T08:48:53;0.15;;;0.15;;
53261;SDS011;39658;51.090;-1.786;2022-09-09T08:51:26;0.87;;;0.63;;
53261;SDS011;39658;51.090;-1.786;2022-09-09T08:53:56;0.30;;;0.23;;
53261;SDS011;39658;51.090;-1.786;2022-09-09T08:56:26;0.10;;;0.10;;
53261;SDS011;39658;51.090;-1.786;2022-09-09T08:58:57;0.10;;;0.10;;
53261;SDS011;39658;51.090;-1.786;2022-09-09T09:01:37;0.55;;;0.40;;
53261;SDS011;39658;51.090;-1.786;2022-09-09T09:04:21;0.52;;;0.32;;
53261;SDS011;39658;51.090;-1.786;2022-09-09T09:07:00;0.40;;;0.20;;
53261;SDS011;39658;51.090;-1.786;2022-09-09T09:09:35;0.52;;;0.22;;
53261;SDS011;39658;51.090;-1.786;2022-09-09T09:12:14;0.00;;;0.00;;
53261;SDS011;39658;51.090;-1.786;2022-09-09T09:14:42;0.37;;;0.10;;
53261;SDS011;39658;51.090;-1.786;2022-09-09T09:17:13;0.57;;;0.15;;
53261;SDS011;39658;51.090;-1.786;2022-09-09T09:19:41;0.35;;;0.15;;
53261;SDS011;39658;51.090;-1.786;2022-09-09T09:22:11;0.98;;;0.43;;
53261;SDS011;39658;51.090;-1.786;2022-09-09T09:24:45;0.00;;;0.00;;
53261;SDS011;39658;51.090;-1.786;2022-09-09T09:27:25;0.03;;;0.03;;
53261;SDS011;39658;51.090;-1.786;2022-09-09T09:29:58;1.00;;;0.55;;
53261;SDS011;39658;51.090;-1.786;2022-09-09T09:32:27;1.25;;;0.82;;
53261;SDS011;39658;51.090;-1.786;2022-09-09T09:34:59;0.10;;;0.10;;
53261;SDS011;39658;51.090;-1.786;2022-09-09T09:37:35;0.30;;;0.17;;
53261;SDS011;39658;51.090;-1.786;2022-09-09T09:40:09;0.47;;;0.32;;
53261;SDS011;39658;51.090;-1.786;2022-09-09T09:42:37;0.43;;;0.30;;
53261;SDS011;39658;51.090;-1.786;2022-09-09T09:45:14;0.10;;;0.10;;
53261;SDS011;39658;51.090;-1.786;2022-09-09T09:47:45;1.77;;;0.77;;
53261;SDS011;39658;51.090;-1.786;2022-09-09T09:50:18;0.30;;;0.13;;
53261;SDS011;39658;51.090;-1.786;2022-09-09T09:52:53;2.15;;;0.32;;
53261;SDS011;39658;51.090;-1.786;2022-09-09T09:55:22;0.55;;;0.20;;
53261;SDS011;39658;51.090;-1.786;2022-09-09T09:57:51;1.00;;;0.20;;
53261;SDS011;39658;51.090;-1.786;2022-09-09T10:00:19;0.28;;;0.20;;
53261;SDS011;39658;51.090;-1.786;2022-09-09T10:02:48;0.93;;;0.23;;
53261;SDS011;39658;51.090;-1.786;2022-09-09T10:05:18;1.13;;;0.30;;
53261;SDS011;39658;51.090;-1.786;2022-09-09T10:07:46;1.50;;;1.17;;
53261;SDS011;39658;51.090;-1.786;2022-09-09T10:10:27;1.50;;;0.20;;
53261;SDS011;39658;51.090;-1.786;2022-09-09T10:13:09;0.25;;;0.25;;
53261;SDS011;39658;51.090;-1.786;2022-09-09T10:15:44;1.40;;;1.02;;
53261;SDS011;39658;51.090;-1.786;2022-09-09T10:18:22;0.15;;;0.15;;
53261;SDS011;39658;51.090;-1.786;2022-09-09T10:21:02;0.98;;;0.52;;
53261;SDS011;39658;51.090;-1.786;2022-09-09T10:23:42;0.10;;;0.10;;
53261;SDS011;39658;51.090;-1.786;2022-09-09T10:26:23;0.00;;;0.00;;
53261;SDS011;39658;51.090;-1.786;2022-09-09T10:32:03;0.10;;;0.10;;
53261;SDS011;39658;51.090;-1.786;2022-09-09T10:34:43;0.00;;;0.00;;
53261;SDS011;39658;51.090;-1.786;2022-09-09T10:37:24;0.05;;;0.03;;
53261;SDS011;39658;51.090;-1.786;2022-09-09T10:40:14;1.90;;;0.55;;
53261;SDS011;39658;51.090;-1.786;2022-09-09T10:42:52;0.30;;;0.20;;
53261;SDS011;39658;51.090;-1.786;2022-09-09T10:45:28;1.27;;;0.60;;
53261;SDS011;39658;51.090;-1.786;2022-09-09T10:48:05;0.55;;;0.47;;
53261;SDS011;39658;51.090;-1.786;2022-09-09T10:50:51;0.10;;;0.10;;
53261;SDS011;39658;51.090;-1.786;2022-09-09T10:53:24;0.00;;;0.00;;
53261;SDS011;39658;51.090;-1.786;2022-09-09T10:56:02;0.10;;;0.10;;
53261;SDS011;39658;51.090;-1.786;2022-09-09T10:58:36;0.28;;;0.10;;
53261;SDS011;39658;51.090;-1.786;2022-09-09T11:01:11;0.10;;;0.10;;
53261;SDS011;39658;51.090;-1.786;2022-09-09T11:03:44;1.65;;;0.32;;
53261;SDS011;39658;51.090;-1.786;2022-09-09T11:06:19;0.13;;;0.00;;
53261;SDS011;39658;51.090;-1.786;2022-09-09T11:08:49;2.67;;;0.82;;
53261;SDS011;39658;51.090;-1.786;2022-09-09T11:11:20;3.47;;;0.82;;
53261;SDS011;39658;51.090;-1.786;2022-09-09T11:13:53;2.78;;;0.80;;
53261;SDS011;39658;51.090;-1.786;2022-09-09T11:16:29;2.22;;;0.80;;
53261;SDS011;39658;51.090;-1.786;2022-09-09T11:21:28;5.88;;;1.00;;
53261;SDS011;39658;51.090;-1.786;2022-09-09T11:23:58;3.97;;;0.68;;
53261;SDS011;39658;51.090;-1.786;2022-09-09T11:26:30;2.42;;;0.70;;
53261;SDS011;39658;51.090;-1.786;2022-09-09T11:32:08;2.63;;;0.70;;
53261;SDS011;39658;51.090;-1.786;2022-09-09T11:34:50;3.20;;;0.80;;
53261;SDS011;39658;51.090;-1.786;2022-09-09T11:37:35;3.38;;;0.70;;
53261;SDS011;39658;51.090;-1.786;2022-09-09T11:40:22;2.83;;;0.75;;
53261;SDS011;39658;51.090;-1.786;2022-09-09T11:43:00;3.33;;;0.95;;
53261;SDS011;39658;51.090;-1.786;2022-09-09T11:45:31;3.60;;;1.17;;
53261;SDS011;39658;51.090;-1.786;2022-09-09T11:48:03;8.88;;;1.55;;
53261;SDS011;39658;51.090;-1.786;2022-09-09T11:50:32;8.32;;;1.02;;
53261;SDS011;39658;51.090;-1.786;2022-09-09T11:55:48;3.45;;;0.73;;
53261;SDS011;39658;51.090;-1.786;2022-09-09T11:58:30;5.78;;;0.80;;
53261;SDS011;39658;51.090;-1.786;2022-09-09T12:01:12;3.58;;;0.80;;
53261;SDS011;39658;51.090;-1.786;2022-09-09T12:03:43;3.42;;;0.90;;
53261;SDS011;39658;51.090;-1.786;2022-09-09T12:06:14;2.87;;;0.90;;
53261;SDS011;39658;51.090;-1.786;2022-09-09T12:08:46;3.08;;;0.70;;
53261;SDS011;39658;51.090;-1.786;2022-09-09T12:11:23;8.03;;;1.17;;
53261;SDS011;39658;51.090;-1.786;2022-09-09T12:13:52;2.22;;;0.80;;
53261;SDS011;39658;51.090;-1.786;2022-09-09T12:16:27;4.25;;;1.00;;
53261;SDS011;39658;51.090;-1.786;2022-09-09T12:19:12;3.50;;;1.00;;
53261;SDS011;39658;51.090;-1.786;2022-09-09T12:21:43;3.95;;;1.05;;
53261;SDS011;39658;51.090;-1.786;2022-09-09T12:24:18;2.90;;;0.80;;
53261;SDS011;39658;51.090;-1.786;2022-09-09T12:26:55;2.20;;;0.60;;
53261;SDS011;39658;51.090;-1.786;2022-09-09T12:29:31;2.35;;;0.93;;
53261;SDS011;39658;51.090;-1.786;2022-09-09T12:32:07;3.22;;;1.20;;
53261;SDS011;39658;51.090;-1.786;2022-09-09T12:34:40;3.35;;;1.00;;
53261;SDS011;39658;51.090;-1.786;2022-09-09T12:37:14;3.63;;;0.93;;
53261;SDS011;39658;51.090;-1.786;2022-09-09T12:39:45;2.38;;;0.73;;
53261;SDS011;39658;51.090;-1.786;2022-09-09T12:42:16;1.75;;;0.77;;
53261;SDS011;39658;51.090;-1.786;2022-09-09T12:44:51;1.85;;;0.70;;
53261;SDS011;39658;51.090;-1.786;2022-09-09T12:47:19;2.53;;;0.80;;
53261;SDS011;39658;51.090;-1.786;2022-09-09T12:49:50;3.28;;;0.70;;
53261;SDS011;39658;51.090;-1.786;2022-09-09T12:52:19;2.00;;;0.70;;
53261;SDS011;39658;51.090;-1.786;2022-09-09T12:54:55;5.10;;;1.13;;
53261;SDS011;39658;51.090;-1.786;2022-09-09T12:57:23;2.88;;;0.82;;
53261;SDS011;39658;51.090;-1.786;2022-09-09T12:59:52;3.28;;;1.00;;
53261;SDS011;39658;51.090;-1.786;2022-09-09T13:02:30;3.05;;;1.10;;
53261;SDS011;39658;51.090;-1.786;2022-09-09T13:05:08;4.45;;;1.40;;
53261;SDS011;39658;51.090;-1.786;2022-09-09T13:07:41;4.10;;;1.42;;
53261;SDS011;39658;51.090;-1.786;2022-09-09T13:10:10;4.72;;;1.50;;
53261;SDS011;39658;51.090;-1.786;2022-09-09T13:12:38;4.65;;;1.30;;
53261;SDS011;39658;51.090;-1.786;2022-09-09T13:15:10;4.97;;;1.42;;
53261;SDS011;39658;51.090;-1.786;2022-09-09T13:17:49;6.15;;;1.50;;
53261;SDS011;39658;51.090;-1.786;2022-09-09T13:20:20;8.40;;;1.70;;
53261;SDS011;39658;51.090;-1.786;2022-09-09T13:22:50;7.00;;;1.70;;
53261;SDS011;39658;51.090;-1.786;2022-09-09T13:25:19;7.60;;;1.92;;
53261;SDS011;39658;51.090;-1.786;2022-09-09T13:27:53;6.25;;;1.75;;
53261;SDS011;39658;51.090;-1.786;2022-09-09T13:30:25;6.10;;;1.88;;
53261;SDS011;39658;51.090;-1.786;2022-09-09T13:33:00;6.93;;;1.90;;
53261;SDS011;39658;51.090;-1.786;2022-09-09T13:35:50;7.15;;;1.80;;
53261;SDS011;39658;51.090;-1.786;2022-09-09T13:38:20;8.73;;;2.53;;
53261;SDS011;39658;51.090;-1.786;2022-09-09T13:40:54;7.32;;;2.20;;
53261;SDS011;39658;51.090;-1.786;2022-09-09T13:43:24;6.30;;;1.75;;
53261;SDS011;39658;51.090;-1.786;2022-09-09T13:45:53;6.95;;;1.67;;
53261;SDS011;39658;51.090;-1.786;2022-09-09T13:48:23;6.00;;;1.70;;
53261;SDS011;39658;51.090;-1.786;2022-09-09T13:50:59;6.13;;;1.75;;
53261;SDS011;39658;51.090;-1.786;2022-09-09T13:53:28;7.55;;;1.80;;
53261;SDS011;39658;51.090;-1.786;2022-09-09T13:55:55;6.50;;;1.90;;
53261;SDS011;39658;51.090;-1.786;2022-09-09T13:58:23;7.18;;;1.95;;
53261;SDS011;39658;51.090;-1.786;2022-09-09T14:00:51;6.40;;;1.92;;
53261;SDS011;39658;51.090;-1.786;2022-09-09T14:03:19;4.97;;;1.40;;
53261;SDS011;39658;51.090;-1.786;2022-09-09T14:05:46;6.43;;;1.80;;
53261;SDS011;39658;51.090;-1.786;2022-09-09T14:08:21;6.00;;;1.50;;
53261;SDS011;39658;51.090;-1.786;2022-09-09T14:10:50;6.50;;;1.77;;
53261;SDS011;39658;51.090;-1.786;2022-09-09T14:13:17;6.88;;;1.73;;
53261;SDS011;39658;51.090;-1.786;2022-09-09T14:15:47;6.95;;;2.03;;
53261;SDS011;39658;51.090;-1.786;2022-09-09T14:18:16;8.40;;;2.45;;
53261;SDS011;39658;51.090;-1.786;2022-09-09T14:20:43;7.35;;;1.95;;
53261;SDS011;39658;51.090;-1.786;2022-09-09T14:23:10;8.27;;;2.17;;
53261;SDS011;39658;51.090;-1.786;2022-09-09T14:25:41;7.93;;;2.00;;
53261;SDS011;39658;51.090;-1.786;2022-09-09T14:28:09;8.13;;;2.20;;
53261;SDS011;39658;51.090;-1.786;2022-09-09T14:30:38;7.80;;;2.20;;
53261;SDS011;39658;51.090;-1.786;2022-09-09T14:33:06;6.82;;;1.80;;
53261;SDS011;39658;51.090;-1.786;2022-09-09T14:35:34;7.18;;;2.15;;
53261;SDS011;39658;51.090;-1.786;2022-09-09T14:38:01;8.43;;;2.45;;
53261;SDS011;39658;51.090;-1.786;2022-09-09T14:40:29;6.38;;;1.83;;
53261;SDS011;39658;51.090;-1.786;2022-09-09T14:42:57;6.95;;;1.95;;
53261;SDS011;39658;51.090;-1.786;2022-09-09T14:45:24;6.68;;;1.90;;
53261;SDS011;39658;51.090;-1.786;2022-09-09T14:47:52;7.63;;;1.85;;
53261;SDS011;39658;51.090;-1.786;2022-09-09T14:50:19;5.45;;;1.70;;
53261;SDS011;39658;51.090;-1.786;2022-09-09T14:52:47;7.18;;;2.13;;
53261;SDS011;39658;51.090;-1.786;2022-09-09T14:55:16;8.24;;;2.10;;
53261;SDS011;39658;51.090;-1.786;2022-09-09T14:57:43;8.75;;;2.08;;
53261;SDS011;39658;51.090;-1.786;2022-09-09T15:00:11;4.88;;;1.50;;
53261;SDS011;39658;51.090;-1.786;2022-09-09T15:02:40;7.65;;;1.85;;
53261;SDS011;39658;51.090;-1.786;2022-09-09T15:05:07;6.15;;;1.55;;
53261;SDS011;39658;51.090;-1.786;2022-09-09T15:07:34;5.88;;;1.60;;
53261;SDS011;39658;51.090;-1.786;2022-09-09T15:10:02;7.57;;;1.90;;